Time;durP1;ratioP1;P1;durP2;ratioP2;P2;SDS_P1;SDS_P2;PMS_P1;PMS_P2;Temp;Humidity;BMP_temperature;BMP_pressure;BME280_temperature;BME280_humidity;BME280_pressure;Samples;Min_cycle;Max_cycle;Signal;HPM_P1;HPM_P2
2022/08/12 00:44:41;;;;;;;0.00;0.00;;;19.40;99.90;;;;;;5076266;28;20723;-77
2022/08/12 00:47:12;;;;;;;0.00;0.00;;;19.40;99.90;;;;;;5079052;28;20230;-77
2022/08/12 00:49:40;;;;;;;0.00;0.00;;;19.40;99.90;;;;;;5077946;28;20245;-77
2022/08/12 00:52:11;;;;;;;0.00;0.00;;;19.40;99.90;;;;;;5079535;28;20221;-77
2022/08/12 00:54:42;;;;;;;0.00;0.00;;;19.40;99.90;;;;;;5076836;28;20217;-76
2022/08/12 00:57:11;;;;;;;0.00;0.00;;;19.40;99.90;;;;;;5078681;28;20273;-77
2022/08/12 00:59:44;;;;;;;0.00;0.00;;;19.40;99.90;;;;;;5075626;28;20195;-76
2022/08/12 01:02:21;;;;;;;0.00;0.00;;;19.30;99.90;;;;;;5076091;28;20223;-77
2022/08/12 01:13:28;;;;;;;0.00;0.00;;;19.20;99.90;;;;;;5017113;28;20191;-77
2022/08/12 01:15:57;;;;;;;0.00;0.00;;;19.20;99.90;;;;;;5057394;28;20258;-77
2022/08/12 01:18:27;;;;;;;0.00;0.00;;;19.10;99.90;;;;;;5073496;28;20210;-78
2022/08/12 01:21:06;;;;;;;0.00;0.00;;;19.10;99.90;;;;;;5076798;28;20234;-78
2022/08/12 01:23:50;;;;;;;0.00;0.00;;;19.00;99.90;;;;;;5079526;28;20209;-77
2022/08/12 01:26:22;;;;;;;0.00;0.00;;;18.90;99.90;;;;;;5071953;28;20238;-77
2022/08/12 01:28:51;;;;;;;0.00;0.00;;;18.90;99.90;;;;;;5074846;28;20301;-77
2022/08/12 01:31:19;;;;;;;0.00;0.00;;;18.90;99.90;;;;;;5073274;28;20246;-77
2022/08/12 01:33:56;;;;;;;0.00;0.00;;;18.90;99.90;;;;;;5076262;28;20214;-76
2022/08/12 01:36:26;;;;;;;0.00;0.00;;;18.80;99.90;;;;;;5077605;28;20202;-77
2022/08/12 01:38:57;;;;;;;0.00;0.00;;;18.80;99.90;;;;;;5076035;28;20194;-77
2022/08/12 01:41:29;;;;;;;0.00;0.00;;;18.80;99.90;;;;;;5072191;28;20218;-77
2022/08/12 01:44:01;;;;;;;0.00;0.00;;;18.80;99.90;;;;;;5078569;28;20252;-77
2022/08/12 01:46:39;;;;;;;0.00;0.00;;;18.70;99.90;;;;;;5081045;28;20225;-77
2022/08/12 01:49:22;;;;;;;0.00;0.00;;;18.70;99.90;;;;;;5079991;28;20265;-77
2022/08/12 01:51:56;;;;;;;0.00;0.00;;;18.70;99.90;;;;;;5078232;28;20230;-77
2022/08/12 01:54:25;;;;;;;0.00;0.00;;;18.60;99.90;;;;;;5074269;28;20628;-76
2022/08/12 01:57:05;;;;;;;0.00;0.00;;;18.60;99.90;;;;;;5077697;28;20191;-77
2022/08/12 01:59:49;;;;;;;0.00;0.00;;;18.60;99.90;;;;;;5077771;28;20221;-77
2022/08/12 02:02:19;;;;;;;0.00;0.00;;;18.50;99.90;;;;;;5073014;28;20258;-77
2022/08/12 02:13:56;;;;;;;0.00;0.00;;;18.30;99.90;;;;;;5069614;28;20195;-77
2022/08/12 02:16:31;;;;;;;0.00;0.00;;;;;;;;;;5045152;28;20210;-77
2022/08/12 02:19:05;;;;;;;0.00;0.00;;;;;;;;;;5061851;28;20222;-77
2022/08/12 02:21:38;;;;;;;0.00;0.00;;;;;;;;;;5065429;28;20233;-76
2022/08/12 02:24:08;;;;;;;0.00;0.00;;;18.00;99.90;;;;;;5067599;28;20303;-77
2022/08/12 02:26:38;;;;;;;0.00;0.00;;;18.00;99.90;;;;;;5066230;28;20215;-77
2022/08/12 02:29:08;;;;;;;0.00;0.00;;;18.00;99.90;;;;;;5065546;28;20215;-77
2022/08/12 02:31:36;;;;;;;0.00;0.00;;;17.90;99.90;;;;;;5067788;28;20237;-77
2022/08/12 02:34:04;;;;;;;0.00;0.00;;;17.90;99.90;;;;;;5067768;28;20206;-77
2022/08/12 02:36:32;;;;;;;0.00;0.00;;;17.90;99.90;;;;;;5070754;28;20297;-76
2022/08/12 02:39:00;;;;;;;0.00;0.00;;;17.80;99.90;;;;;;5070268;28;20209;-77
2022/08/12 02:41:32;;;;;;;0.00;0.00;;;17.70;99.90;;;;;;5066066;28;20279;-77
2022/08/12 02:44:02;;;;;;;0.00;0.00;;;17.70;99.90;;;;;;5068866;28;20203;-77
2022/08/12 02:46:34;;;;;;;0.00;0.00;;;17.60;99.90;;;;;;5066659;28;20223;-77
2022/08/12 02:49:05;;;;;;;0.00;0.00;;;17.60;99.90;;;;;;5072807;28;20198;-77
2022/08/12 02:51:35;;;;;;;0.00;0.00;;;17.60;99.90;;;;;;5070685;28;20313;-77
2022/08/12 02:54:03;;;;;;;0.00;0.00;;;17.60;99.90;;;;;;5068321;28;20222;-77
2022/08/12 02:56:32;;;;;;;0.00;0.00;;;17.50;99.90;;;;;;5071891;28;20290;-77
2022/08/12 02:59:01;;;;;;;0.00;0.00;;;17.50;99.90;;;;;;5071380;28;20276;-77
2022/08/12 03:01:32;;;;;;;0.00;0.00;;;17.50;99.90;;;;;;5069915;28;20286;-77
2022/08/12 03:04:01;;;;;;;0.00;0.00;;;17.40;99.90;;;;;;5085306;28;20218;-77
2022/08/12 03:06:37;;;;;;;0.00;0.00;;;17.40;99.90;;;;;;5066825;28;20231;-75
2022/08/12 03:09:06;;;;;;;0.00;0.00;;;17.40;99.90;;;;;;5071239;28;20397;-77
2022/08/12 03:11:39;;;;;;;0.00;0.00;;;17.30;99.90;;;;;;5067868;28;20296;-77
2022/08/12 03:14:13;;;;;;;0.00;0.00;;;17.20;99.90;;;;;;5072620;28;20737;-77
2022/08/12 03:16:44;;;;;;;0.00;0.00;;;17.20;99.90;;;;;;5084642;28;20203;-77
2022/08/12 03:19:12;;;;;;;0.00;0.00;;;17.10;99.90;;;;;;5070256;28;20196;-76
2022/08/12 03:21:44;;;;;;;0.00;0.00;;;17.10;99.90;;;;;;5068305;28;20238;-78
2022/08/12 03:24:17;;;;;;;0.00;0.00;;;17.10;99.90;;;;;;5064250;28;20206;-78
2022/08/12 03:26:47;;;;;;;0.00;0.00;;;17.10;99.90;;;;;;5060313;28;20365;-77
2022/08/12 03:29:16;;;;;;;0.00;0.00;;;17.10;99.90;;;;;;5059628;28;20229;-77
2022/08/12 03:31:46;;;;;;;0.00;0.00;;;17.00;99.90;;;;;;5066765;28;20309;-78
2022/08/12 03:34:28;;;;;;;0.00;0.00;;;16.90;99.90;;;;;;5065757;28;20199;-78
2022/08/12 03:36:57;;;;;;;0.00;0.00;;;16.90;99.90;;;;;;5060281;28;20195;-78
2022/08/12 03:39:32;;;;;;;0.00;0.00;;;16.90;99.90;;;;;;5062373;28;20195;-78
2022/08/12 03:42:02;;;;;;;0.00;0.00;;;16.90;99.90;;;;;;5064458;28;20252;-76
2022/08/12 04:01:10;;;;;;;0.00;0.00;;;16.70;99.90;;;;;;5070335;28;20218;-77
2022/08/12 04:03:54;;;;;;;0.00;0.00;;;16.70;99.90;;;;;;5066966;28;20234;-77
2022/08/12 04:06:23;;;;;;;0.03;0.03;;;16.70;99.90;;;;;;5066452;28;20214;-78
2022/08/12 04:08:51;;;;;;;0.00;0.00;;;16.60;99.90;;;;;;5067383;28;20198;-78
2022/08/12 04:14:07;;;;;;;0.10;0.10;;;16.50;99.90;;;;;;5061625;28;20272;-77
2022/08/12 04:16:35;;;;;;;0.03;0.03;;;16.50;99.90;;;;;;5064442;28;20209;-77
2022/08/12 04:19:05;;;;;;;0.00;0.00;;;16.60;99.90;;;;;;5084343;28;20265;-80
2022/08/12 04:21:33;;;;;;;0.00;0.00;;;16.70;99.90;;;;;;5067191;28;20238;-80
2022/08/12 04:24:01;;;;;;;0.00;0.00;;;16.60;99.90;;;;;;5069816;28;20726;-80
2022/08/12 04:26:28;;;;;;;0.00;0.00;;;16.60;99.90;;;;;;5067585;28;20249;-81
2022/08/12 04:28:57;;;;;;;0.00;0.00;;;16.60;99.90;;;;;;5076150;28;20289;-81
2022/08/12 04:31:31;;;;;;;0.00;0.00;;;16.80;99.90;;;;;;5079097;28;20232;-81
2022/08/12 04:33:59;;;;;;;0.00;0.00;;;16.90;99.90;;;;;;5075207;28;20202;-80
2022/08/12 04:36:28;;;;;;;0.00;0.00;;;16.90;99.90;;;;;;5065948;28;20222;-80
2022/08/12 04:38:57;;;;;;;0.00;0.00;;;17.00;99.90;;;;;;5084310;28;20289;-79
2022/08/12 04:41:25;;;;;;;0.00;0.00;;;17.10;99.90;;;;;;5075675;28;20225;-81
2022/08/12 04:43:52;;;;;;;0.00;0.00;;;17.30;99.90;;;;;;5074888;28;20226;-80
2022/08/12 04:46:19;;;;;;;0.00;0.00;;;17.40;99.90;;;;;;5074366;28;20214;-80
2022/08/12 04:48:46;;;;;;;0.00;0.00;;;17.60;99.90;;;;;;5075440;28;20205;-80
2022/08/12 04:51:14;;;;;;;0.00;0.00;;;17.80;99.90;;;;;;5074095;28;20218;-80
2022/08/12 04:53:43;;;;;;;0.10;0.10;;;17.90;99.90;;;;;;5075053;28;20260;-81
2022/08/12 04:56:10;;;;;;;0.00;0.00;;;18.10;99.90;;;;;;5076359;28;20677;-79
2022/08/12 04:58:38;;;;;;;0.00;0.00;;;18.30;99.90;;;;;;5074369;28;20257;-80
2022/08/12 05:01:05;;;;;;;0.00;0.00;;;18.30;99.90;;;;;;5074108;28;20607;-80
2022/08/12 05:03:34;;;;;;;0.00;0.00;;;18.50;99.90;;;;;;5075378;28;20210;-81
2022/08/12 05:06:01;;;;;;;0.00;0.00;;;18.60;99.90;;;;;;5073129;28;20233;-80
2022/08/12 05:08:29;;;;;;;0.00;0.00;;;18.70;99.90;;;;;;5081252;28;20199;-82
2022/08/12 05:10:58;;;;;;;0.00;0.00;;;18.80;99.90;;;;;;5082473;28;20944;-82
2022/08/12 05:13:29;;;;;;;0.00;0.00;;;18.80;99.90;;;;;;5080870;28;20224;-81
2022/08/12 05:15:56;;;;;;;0.00;0.00;;;19.00;99.90;;;;;;5079923;28;20275;-81
2022/08/12 05:18:23;;;;;;;0.00;0.00;;;19.20;99.90;;;;;;5080926;28;20200;-79
2022/08/12 05:20:50;;;;;;;0.00;0.00;;;19.20;99.90;;;;;;5077672;28;20230;-81
2022/08/12 05:23:19;;;;;;;0.00;0.00;;;19.40;99.90;;;;;;5074840;28;20226;-80
2022/08/12 05:25:49;;;;;;;0.00;0.00;;;19.40;99.90;;;;;;5071782;28;20217;-79
2022/08/12 05:28:18;;;;;;;0.00;0.00;;;19.50;99.90;;;;;;5073976;28;20345;-79
2022/08/12 05:30:46;;;;;;;0.00;0.00;;;19.70;99.90;;;;;;5072719;28;20223;-81
2022/08/12 05:33:14;;;;;;;0.00;0.00;;;19.80;99.90;;;;;;5072526;28;20209;-80
2022/08/12 05:35:44;;;;;;;0.00;0.00;;;20.00;99.90;;;;;;5071849;28;20206;-83
2022/08/12 05:40:57;;;;;;;0.00;0.00;;;20.10;99.90;;;;;;5060646;28;20310;-82
2022/08/12 05:43:25;;;;;;;0.00;0.00;;;20.30;99.90;;;;;;5064580;28;20222;-82
2022/08/12 05:45:53;;;;;;;0.00;0.00;;;20.40;99.90;;;;;;5065003;28;20200;-83
2022/08/12 05:48:21;;;;;;;0.00;0.00;;;20.60;99.90;;;;;;5065010;28;20253;-82
2022/08/12 05:50:48;;;;;;;0.00;0.00;;;20.70;99.90;;;;;;5067914;28;20294;-82
2022/08/12 05:53:15;;;;;;;0.00;0.00;;;20.80;99.90;;;;;;5065550;28;20215;-83
2022/08/12 05:55:42;;;;;;;0.00;0.00;;;20.90;99.90;;;;;;5060642;28;20722;-82
2022/08/12 05:58:09;;;;;;;0.00;0.00;;;21.10;99.90;;;;;;5063430;28;20216;-82
2022/08/12 06:00:38;;;;;;;0.00;0.00;;;21.30;99.90;;;;;;5063206;28;20249;-82
2022/08/12 06:03:06;;;;;;;0.00;0.00;;;21.40;99.90;;;;;;5065539;28;20203;-82
2022/08/12 06:05:35;;;;;;;0.00;0.00;;;21.50;99.90;;;;;;5065582;28;20209;-82
2022/08/12 06:08:05;;;;;;;0.00;0.00;;;21.70;99.90;;;;;;5063924;28;20223;-83
2022/08/12 06:10:33;;;;;;;0.00;0.00;;;21.80;99.90;;;;;;5062174;28;20302;-82
2022/08/12 06:13:01;;;;;;;0.00;0.00;;;21.90;99.90;;;;;;5065572;28;20328;-82
2022/08/12 06:15:29;;;;;;;0.00;0.00;;;22.20;99.90;;;;;;5065704;28;20226;-82
2022/08/12 06:18:06;;;;;;;0.00;0.00;;;22.30;99.90;;;;;;5059156;28;20206;-82
2022/08/12 06:20:33;;;;;;;0.00;0.00;;;22.40;99.90;;;;;;5065774;28;20202;-84
2022/08/12 06:23:03;;;;;;;0.00;0.00;;;22.50;99.90;;;;;;5066024;28;20229;-82
2022/08/12 06:25:30;;;;;;;0.00;0.00;;;22.70;99.90;;;;;;5069247;28;20306;-82
2022/08/12 06:28:00;;;;;;;0.00;0.00;;;22.90;99.90;;;;;;5066579;28;20230;-82
2022/08/12 06:30:32;;;;;;;0.00;0.00;;;22.90;99.90;;;;;;5060923;28;20206;-83
2022/08/12 06:32:59;;;;;;;0.00;0.00;;;23.20;99.90;;;;;;5057997;28;20206;-82
2022/08/12 06:35:29;;;;;;;0.00;0.00;;;23.20;99.90;;;;;;5065823;28;20304;-82
2022/08/12 06:37:56;;;;;;;0.00;0.00;;;23.30;99.90;;;;;;5066609;28;20218;-83
2022/08/12 06:43:05;;;;;;;0.00;0.00;;;23.60;99.90;;;;;;5057313;28;20207;-82
2022/08/12 06:45:32;;;;;;;0.00;0.00;;;23.70;99.90;;;;;;5064899;28;20203;-81
2022/08/12 06:48:07;;;;;;;0.00;0.00;;;23.80;99.90;;;;;;5061512;28;20219;-82
2022/08/12 06:50:36;;;;;;;0.00;0.00;;;24.00;99.90;;;;;;5055720;28;20190;-81
2022/08/12 06:53:04;;;;;;;0.00;0.00;;;24.20;99.90;;;;;;5068690;28;20195;-82
2022/08/12 06:55:31;;;;;;;0.00;0.00;;;24.30;99.90;;;;;;5065425;28;20206;-82
2022/08/12 06:58:00;;;;;;;0.00;0.00;;;24.40;99.90;;;;;;5066667;28;20203;-82
2022/08/12 07:00:29;;;;;;;0.00;0.00;;;24.60;99.90;;;;;;5067889;28;20667;-81
2022/08/12 07:02:57;;;;;;;0.00;0.00;;;24.80;99.90;;;;;;5060252;28;20252;-81
2022/08/12 07:05:25;;;;;;;0.00;0.00;;;24.90;99.90;;;;;;5066229;28;20194;-81
2022/08/12 07:08:18;;;;;;;0.00;0.00;;;25.10;99.90;;;;;;5068487;28;20305;-82
2022/08/12 07:10:57;;;;;;;0.00;0.00;;;25.30;99.90;;;;;;5046582;28;20223;-82
2022/08/12 07:13:28;;;;;;;0.00;0.00;;;25.40;99.90;;;;;;5065643;28;20233;-82
2022/08/12 07:15:55;;;;;;;0.00;0.00;;;25.50;99.90;;;;;;5067074;28;20199;-81
2022/08/12 07:18:29;;;;;;;0.00;0.00;;;25.60;99.90;;;;;;5064667;28;20206;-82
2022/08/12 07:20:57;;;;;;;0.00;0.00;;;25.80;99.90;;;;;;5064779;28;20249;-79
2022/08/12 07:23:25;;;;;;;0.00;0.00;;;25.90;99.90;;;;;;5061846;28;20198;-79
2022/08/12 07:25:52;;;;;;;0.00;0.00;;;26.10;99.90;;;;;;5066378;28;20344;-79
2022/08/12 07:28:22;;;;;;;0.00;0.00;;;26.20;99.90;;;;;;5065180;28;20604;-80
2022/08/12 07:30:52;;;;;;;0.00;0.00;;;26.40;99.90;;;;;;5062885;28;20234;-79
2022/08/12 07:33:22;;;;;;;0.00;0.00;;;26.50;99.90;;;;;;5065847;28;20677;-79
2022/08/12 07:35:51;;;;;;;0.00;0.00;;;26.60;99.90;;;;;;5067124;28;20241;-79
2022/08/12 07:38:26;;;;;;;0.00;0.00;;;26.70;99.90;;;;;;5062450;28;20701;-80
2022/08/12 07:40:55;;;;;;;0.00;0.00;;;26.80;99.90;;;;;;5063209;28;20221;-80
2022/08/12 07:43:23;;;;;;;0.00;0.00;;;26.90;99.90;;;;;;5066394;28;20202;-80
2022/08/12 07:45:52;;;;;;;0.00;0.00;;;26.90;99.90;;;;;;5067969;28;20198;-79
2022/08/12 07:48:20;;;;;;;0.00;0.00;;;27.00;99.90;;;;;;5069389;28;20709;-79
2022/08/12 07:50:47;;;;;;;0.00;0.00;;;27.10;99.90;;;;;;5066631;28;20215;-80
2022/08/12 07:53:14;;;;;;;0.00;0.00;;;27.20;99.90;;;;;;5070372;28;20208;-79
2022/08/12 07:55:43;;;;;;;0.00;0.00;;;27.30;99.90;;;;;;5068617;28;20198;-79
2022/08/12 07:58:10;;;;;;;0.00;0.00;;;27.40;99.90;;;;;;5070325;28;20211;-79
2022/08/12 08:00:39;;;;;;;0.00;0.00;;;27.50;99.90;;;;;;5069174;28;20222;-81
2022/08/12 08:03:07;;;;;;;0.00;0.00;;;;;;;;;;5067239;28;20202;-82
2022/08/12 08:05:37;;;;;;;0.00;0.00;;;27.70;99.90;;;;;;5071834;28;20195;-82
2022/08/12 08:08:13;;;;;;;0.00;0.00;;;27.70;99.90;;;;;;5070181;28;20218;-82
2022/08/12 08:10:42;;;;;;;0.00;0.00;;;27.80;99.90;;;;;;5074090;28;20279;-82
2022/08/12 08:13:11;;;;;;;0.00;0.00;;;;;;;;;;5069941;28;20195;-82
2022/08/12 08:15:39;;;;;;;0.00;0.00;;;;;;;;;;5083671;28;20286;-82
2022/08/12 08:18:07;;;;;;;0.00;0.00;;;;;;;;;;5074433;28;20190;-82
2022/08/12 08:20:38;;;;;;;0.00;0.00;;;28.50;99.90;;;;;;5071292;28;20207;-81
2022/08/12 08:23:09;;;;;;;0.00;0.00;;;28.40;99.90;;;;;;5070246;28;20203;-79
2022/08/12 08:25:37;;;;;;;0.00;0.00;;;28.50;99.90;;;;;;5065581;28;20215;-80
2022/08/12 08:28:09;;;;;;;0.00;0.00;;;28.70;99.90;;;;;;5065190;28;20278;-81
2022/08/12 08:30:41;;;;;;;0.00;0.00;;;28.70;99.90;;;;;;5068828;28;20265;-80
2022/08/12 08:33:09;;;;;;;0.00;0.00;;;;;;;;;;5065136;28;20211;-80
2022/08/12 08:35:37;;;;;;;0.00;0.00;;;;;;;;;;5067132;28;20233;-80
2022/08/12 08:38:09;;;;;;;0.00;0.00;;;;;;;;;;5068999;28;20218;-80
2022/08/12 08:43:24;;;;;;;0.00;0.00;;;29.30;99.90;;;;;;5064591;28;20222;-80
2022/08/12 08:45:51;;;;;;;0.00;0.00;;;29.10;99.90;;;;;;5072336;28;20226;-80
2022/08/12 08:48:21;;;;;;;0.00;0.00;;;29.10;99.90;;;;;;5072301;28;20254;-80
2022/08/12 08:50:48;;;;;;;0.00;0.00;;;;;;;;;;5074757;28;20229;-80
2022/08/12 08:53:17;;;;;;;0.00;0.00;;;29.50;99.90;;;;;;5074202;28;20199;-80
2022/08/12 08:55:45;;;;;;;0.00;0.00;;;;;;;;;;5071830;28;20206;-80
2022/08/12 08:58:12;;;;;;;0.00;0.00;;;29.60;99.90;;;;;;5072362;28;20206;-81
2022/08/12 09:00:41;;;;;;;0.00;0.00;;;;;;;;;;5071045;28;20226;-80
2022/08/12 09:03:08;;;;;;;0.00;0.00;;;29.50;99.90;;;;;;5074449;28;20217;-80
2022/08/12 09:05:36;;;;;;;0.00;0.00;;;;;;;;;;5075135;28;20236;-80
2022/08/12 09:08:05;;;;;;;0.00;0.00;;;29.60;99.90;;;;;;5072532;28;20272;-81
2022/08/12 09:10:33;;;;;;;0.00;0.00;;;29.80;99.90;;;;;;5073135;28;20234;-78
2022/08/12 09:15:48;;;;;;;0.00;0.00;;;29.80;99.90;;;;;;5068076;28;20195;-79
2022/08/12 09:18:17;;;;;;;0.00;0.00;;;29.80;99.90;;;;;;5064965;28;20190;-79
2022/08/12 09:20:49;;;;;;;0.00;0.00;;;;;;;;;;5062782;28;20254;-79
2022/08/12 09:23:17;;;;;;;0.00;0.00;;;30.10;99.90;;;;;;5065948;28;20268;-80
2022/08/12 09:25:47;;;;;;;0.00;0.00;;;29.90;99.90;;;;;;5069210;28;20207;-80
2022/08/12 09:28:15;;;;;;;0.00;0.00;;;;;;;;;;5068936;28;20279;-79
2022/08/12 09:30:45;;;;;;;0.00;0.00;;;;;;;;;;5071918;28;20222;-80
2022/08/12 09:33:15;;;;;;;0.00;0.00;;;;;;;;;;5072217;28;20206;-79
2022/08/12 09:35:44;;;;;;;0.00;0.00;;;;;;;;;;5072425;28;20203;-79
2022/08/12 09:38:14;;;;;;;0.00;0.00;;;;;;;;;;5069629;28;20195;-80
2022/08/12 09:40:42;;;;;;;0.00;0.00;;;;;;;;;;5063003;28;20210;-80
2022/08/12 09:45:53;;;;;;;0.00;0.00;;;30.40;99.90;;;;;;5060653;28;20285;-80
2022/08/12 09:48:22;;;;;;;0.00;0.00;;;;;;;;;;5065662;28;20223;-80
2022/08/12 09:50:50;;;;;;;0.00;0.00;;;;;;;;;;5063249;28;20229;-79
2022/08/12 09:53:22;;;;;;;0.00;0.00;;;;;;;;;;5069024;28;20266;-80
2022/08/12 09:55:51;;;;;;;0.00;0.00;;;30.50;99.90;;;;;;5071791;28;20210;-79
2022/08/12 09:58:18;;;;;;;0.00;0.00;;;30.40;99.90;;;;;;5070768;28;20198;-79
2022/08/12 10:00:47;;;;;;;0.00;0.00;;;30.40;99.90;;;;;;5058897;28;20210;-79
2022/08/12 10:03:15;;;;;;;0.00;0.00;;;30.30;99.90;;;;;;5061647;28;20215;-78
2022/08/12 10:05:45;;;;;;;0.00;0.00;;;30.20;99.90;;;;;;5064152;28;20195;-79
2022/08/12 10:08:15;;;;;;;0.00;0.00;;;30.30;99.90;;;;;;5060967;28;20286;-79
2022/08/12 10:13:43;;;;;;;0.00;0.00;;;30.40;99.90;;;;;;5062262;28;20194;-78
2022/08/12 10:16:11;;;;;;;0.00;0.00;;;;;;;;;;5066028;28;20268;-77
2022/08/12 10:18:40;;;;;;;0.00;0.00;;;;;;;;;;5065338;28;20203;-78
2022/08/12 10:21:11;;;;;;;0.00;0.00;;;30.50;99.90;;;;;;5064210;28;20226;-77
2022/08/12 10:23:40;;;;;;;0.00;0.00;;;30.50;99.90;;;;;;5065448;28;20207;-79
2022/08/12 10:31:37;;;;;;;0.00;0.00;;;30.50;99.90;;;;;;5075187;28;20244;-80
2022/08/12 10:34:05;;;;;;;0.00;0.00;;;30.60;99.90;;;;;;5071928;28;20203;-80
2022/08/12 10:36:37;;;;;;;0.00;0.00;;;30.60;99.90;;;;;;5073927;28;20233;-80
2022/08/12 10:39:04;;;;;;;0.00;0.00;;;30.70;99.90;;;;;;5078178;28;20278;-79
2022/08/12 10:44:16;;;;;;;0.00;0.00;;;30.80;99.60;;;;;;5067106;28;20191;-79
2022/08/12 10:46:44;;;;;;;0.00;0.00;;;30.80;99.20;;;;;;5068205;28;20210;-81
2022/08/12 10:49:12;;;;;;;0.00;0.00;;;30.80;99.90;;;;;;5067886;28;20228;-80
2022/08/12 10:51:41;;;;;;;0.00;0.00;;;;;;;;;;5068043;28;20231;-80
2022/08/12 10:54:10;;;;;;;0.00;0.00;;;;;;;;;;5069647;28;20293;-80
2022/08/12 10:56:40;;;;;;;0.00;0.00;;;;;;;;;;5066330;28;20229;-80
2022/08/12 10:59:07;;;;;;;0.00;0.00;;;30.40;99.30;;;;;;5058752;28;20221;-81
2022/08/12 11:01:34;;;;;;;0.00;0.00;;;30.30;99.30;;;;;;5060518;28;20313;-80
2022/08/12 11:04:02;;;;;;;0.00;0.00;;;30.30;99.70;;;;;;5066063;28;20202;-79
2022/08/12 11:06:29;;;;;;;0.00;0.00;;;30.30;99.90;;;;;;5061528;28;20206;-81
2022/08/12 11:08:59;;;;;;;0.00;0.00;;;30.30;99.50;;;;;;5066018;28;20316;-80
2022/08/12 11:11:26;;;;;;;0.00;0.00;;;30.40;99.60;;;;;;5070733;28;20241;-80
2022/08/12 11:13:53;;;;;;;0.00;0.00;;;30.60;99.90;;;;;;5062613;28;20195;-81
2022/08/12 11:16:21;;;;;;;0.00;0.00;;;30.80;99.90;;;;;;5065420;28;20203;-80
2022/08/12 11:18:48;;;;;;;0.00;0.00;;;31.10;99.90;;;;;;5070443;28;20246;-79
2022/08/12 11:21:15;;;;;;;0.00;0.00;;;31.20;99.00;;;;;;5068680;28;20222;-79
2022/08/12 11:23:42;;;;;;;0.00;0.00;;;31.00;98.40;;;;;;5064343;28;20307;-80
2022/08/12 11:26:11;;;;;;;0.00;0.00;;;30.90;99.00;;;;;;5065509;28;20203;-79
2022/08/12 11:28:38;;;;;;;0.00;0.00;;;30.60;98.80;;;;;;5067041;28;20218;-78
2022/08/12 11:31:07;;;;;;;0.00;0.00;;;30.20;97.80;;;;;;5075416;28;20218;-79
2022/08/12 11:33:35;;;;;;;0.00;0.00;;;30.20;98.20;;;;;;5071354;28;20203;-80
2022/08/12 11:36:07;;;;;;;0.00;0.00;;;30.00;98.10;;;;;;5072111;28;20291;-79
2022/08/12 11:38:34;;;;;;;0.00;0.00;;;30.00;98.00;;;;;;5075137;28;20198;-80
2022/08/12 11:41:03;;;;;;;0.00;0.00;;;30.20;99.10;;;;;;5065411;28;20215;-79
2022/08/12 11:43:32;;;;;;;0.00;0.00;;;30.30;98.20;;;;;;5071916;28;20213;-79
2022/08/12 11:46:00;;;;;;;0.00;0.00;;;30.50;98.40;;;;;;5071692;28;20194;-78
2022/08/12 11:48:27;;;;;;;0.00;0.00;;;30.60;99.00;;;;;;5072965;28;20291;-79
2022/08/12 11:50:55;;;;;;;0.00;0.00;;;30.80;98.90;;;;;;5071029;28;20222;-78
2022/08/12 11:53:22;;;;;;;0.00;0.00;;;31.10;99.00;;;;;;5061694;28;20192;-79
2022/08/12 11:55:50;;;;;;;0.00;0.00;;;31.00;97.80;;;;;;5073191;28;20191;-79
2022/08/12 11:58:19;;;;;;;0.00;0.00;;;31.10;98.40;;;;;;5069598;28;20252;-78
2022/08/12 12:00:48;;;;;;;0.00;0.00;;;31.00;97.60;;;;;;5072615;28;20252;-79
2022/08/12 12:03:15;;;;;;;0.00;0.00;;;30.90;97.90;;;;;;5082337;28;20213;-78
2022/08/12 12:05:42;;;;;;;0.00;0.00;;;30.80;97.00;;;;;;5067338;28;20277;-78
2022/08/12 12:08:09;;;;;;;0.00;0.00;;;30.70;97.30;;;;;;5070856;28;20198;-78
2022/08/12 12:10:36;;;;;;;0.00;0.00;;;30.70;97.40;;;;;;5065768;28;20206;-77
2022/08/12 12:13:03;;;;;;;0.00;0.00;;;30.70;97.50;;;;;;5069435;28;20206;-78
2022/08/12 12:15:31;;;;;;;0.00;0.00;;;30.70;97.40;;;;;;5070240;28;20249;-77
2022/08/12 12:17:59;;;;;;;0.00;0.00;;;30.70;97.00;;;;;;5070900;28;20248;-78
2022/08/12 12:20:26;;;;;;;0.00;0.00;;;30.70;96.90;;;;;;5068365;28;20186;-77
2022/08/12 12:22:54;;;;;;;0.00;0.00;;;30.70;97.10;;;;;;5069335;28;20199;-77
2022/08/12 12:25:21;;;;;;;0.00;0.00;;;30.70;97.10;;;;;;5067697;28;20206;-78
2022/08/12 12:27:50;;;;;;;0.00;0.00;;;30.70;96.70;;;;;;5067328;28;20269;-78
2022/08/12 12:30:18;;;;;;;0.00;0.00;;;30.70;97.10;;;;;;5069847;28;20644;-78
2022/08/12 12:32:45;;;;;;;0.00;0.00;;;30.70;97.30;;;;;;5067617;28;20200;-80
2022/08/12 12:35:14;;;;;;;0.00;0.00;;;30.60;97.30;;;;;;5069401;28;20270;-78
2022/08/12 12:37:56;;;;;;;0.00;0.00;;;30.30;96.70;;;;;;5068672;28;20210;-77
2022/08/12 12:40:24;;;;;;;0.00;0.00;;;30.10;96.80;;;;;;5069430;28;20199;-74
2022/08/12 12:42:51;;;;;;;0.00;0.00;;;29.90;97.20;;;;;;5071128;28;20198;-75
2022/08/12 12:45:18;;;;;;;0.00;0.00;;;29.70;97.20;;;;;;5072042;28;20194;-78
2022/08/12 12:47:56;;;;;;;0.00;0.00;;;29.70;97.30;;;;;;5062578;28;20198;-78
2022/08/12 12:50:26;;;;;;;0.00;0.00;;;29.60;97.10;;;;;;5080254;28;20215;-78
2022/08/12 12:52:54;;;;;;;0.00;0.00;;;29.60;96.70;;;;;;5066682;28;20203;-76
2022/08/12 12:55:21;;;;;;;0.00;0.00;;;29.60;97.40;;;;;;5066676;28;20226;-77
2022/08/12 12:57:49;;;;;;;0.00;0.00;;;29.70;97.80;;;;;;5062382;28;20226;-77
2022/08/12 13:00:17;;;;;;;0.00;0.00;;;29.90;99.90;;;;;;5058666;28;20199;-76
2022/08/12 13:02:51;;;;;;;0.00;0.00;;;30.10;98.00;;;;;;5067540;28;20673;-77
2022/08/12 13:05:24;;;;;;;0.00;0.00;;;30.20;97.70;;;;;;5062643;28;20203;-76
2022/08/12 13:07:54;;;;;;;0.00;0.00;;;30.30;97.30;;;;;;5082783;28;20199;-77
2022/08/12 13:10:22;;;;;;;0.00;0.00;;;30.40;97.20;;;;;;5067321;28;20206;-76
2022/08/12 13:12:49;;;;;;;0.00;0.00;;;30.50;97.10;;;;;;5061377;28;20297;-77
2022/08/12 13:15:17;;;;;;;0.00;0.00;;;30.40;96.80;;;;;;5065317;28;20195;-77
2022/08/12 13:17:48;;;;;;;0.00;0.00;;;30.40;98.00;;;;;;5062132;28;20775;-76
2022/08/12 13:20:22;;;;;;;0.00;0.00;;;30.40;97.20;;;;;;5064860;28;20199;-76
2022/08/12 13:22:49;;;;;;;0.00;0.00;;;30.40;97.80;;;;;;5067711;28;20221;-77
2022/08/12 13:25:18;;;;;;;0.00;0.00;;;30.20;97.40;;;;;;5079379;28;20202;-78
2022/08/12 13:27:46;;;;;;;0.00;0.00;;;30.00;97.30;;;;;;5066692;28;20231;-78
2022/08/12 13:30:15;;;;;;;0.00;0.00;;;29.90;98.00;;;;;;5065478;28;20645;-78
2022/08/12 13:32:45;;;;;;;0.00;0.00;;;29.80;97.70;;;;;;5066067;28;20184;-79
2022/08/12 13:35:15;;;;;;;0.00;0.00;;;29.70;98.20;;;;;;5065965;28;20206;-79
2022/08/12 13:37:42;;;;;;;0.00;0.00;;;29.70;98.20;;;;;;5066767;28;20234;-80
2022/08/12 13:40:11;;;;;;;0.00;0.00;;;29.60;98.20;;;;;;5067346;28;20283;-78
2022/08/12 13:42:39;;;;;;;0.00;0.00;;;29.60;98.10;;;;;;5070888;28;20218;-77
2022/08/12 13:45:07;;;;;;;0.00;0.00;;;29.40;98.20;;;;;;5066028;28;20194;-78
2022/08/12 13:47:54;;;;;;;0.00;0.00;;;29.40;98.20;;;;;;5061236;28;20235;-79
2022/08/12 13:50:28;;;;;;;0.00;0.00;;;29.30;97.80;;;;;;5062734;28;20238;-79
2022/08/12 13:52:55;;;;;;;0.00;0.00;;;29.30;98.30;;;;;;5070632;28;20205;-79
2022/08/12 13:55:24;;;;;;;0.00;0.00;;;29.40;98.50;;;;;;5057892;28;20203;-79
2022/08/12 13:57:53;;;;;;;0.00;0.00;;;29.40;98.60;;;;;;5056796;28;20202;-79
2022/08/12 14:00:20;;;;;;;0.00;0.00;;;29.50;98.50;;;;;;5061290;28;20285;-78
2022/08/12 14:02:48;;;;;;;0.00;0.00;;;29.50;98.00;;;;;;5065164;28;20199;-78
2022/08/12 14:05:16;;;;;;;0.00;0.00;;;29.60;97.90;;;;;;5066870;28;20195;-78
2022/08/12 14:07:57;;;;;;;0.00;0.00;;;29.60;98.60;;;;;;5065325;28;20670;-78
2022/08/12 14:10:38;;;;;;;0.00;0.00;;;29.70;98.00;;;;;;5061042;28;20295;-78
2022/08/12 14:13:11;;;;;;;0.00;0.00;;;29.70;98.60;;;;;;5059889;28;20195;-78
2022/08/12 14:15:40;;;;;;;0.00;0.00;;;29.70;98.50;;;;;;5057489;28;20203;-78
2022/08/12 14:18:12;;;;;;;0.00;0.00;;;29.70;97.60;;;;;;5060621;28;20202;-80
2022/08/12 14:20:40;;;;;;;0.00;0.00;;;29.70;97.70;;;;;;5054119;28;20222;-78
2022/08/12 14:23:07;;;;;;;0.00;0.00;;;29.60;97.40;;;;;;5054351;28;20716;-78
2022/08/12 14:25:34;;;;;;;0.00;0.00;;;29.70;98.10;;;;;;5060772;28;20251;-78
2022/08/12 14:28:10;;;;;;;0.00;0.00;;;29.70;98.70;;;;;;5062046;28;20547;-80
2022/08/12 14:30:45;;;;;;;0.00;0.00;;;29.70;97.70;;;;;;5080080;28;20226;-78
2022/08/12 14:33:14;;;;;;;0.00;0.00;;;29.70;98.20;;;;;;5053401;28;20207;-81
2022/08/12 14:35:41;;;;;;;0.00;0.00;;;29.70;98.30;;;;;;5054951;28;20203;-80
2022/08/12 14:38:20;;;;;;;0.00;0.00;;;29.60;98.30;;;;;;5060107;28;20248;-80
2022/08/12 14:40:48;;;;;;;0.00;0.00;;;29.60;98.20;;;;;;5058218;28;20226;-78
2022/08/12 14:43:16;;;;;;;0.00;0.00;;;29.60;98.00;;;;;;5061983;28;20286;-80
2022/08/12 14:45:44;;;;;;;0.00;0.00;;;29.60;98.30;;;;;;5059585;28;20312;-78
2022/08/12 14:48:12;;;;;;;0.00;0.00;;;29.60;98.10;;;;;;5059948;28;20194;-75
2022/08/12 14:50:40;;;;;;;0.00;0.00;;;29.60;98.40;;;;;;5058562;28;20257;-79
2022/08/12 14:53:09;;;;;;;0.00;0.00;;;29.60;98.80;;;;;;5065371;28;20195;-77